createdAt,value
2017-09-21T00:00:16.951Z,99.99
2017-09-21T00:01:16.946Z,99.99
2017-09-21T00:02:16.943Z,99.99
2017-09-21T00:03:16.937Z,99.99
2017-09-21T00:04:16.933Z,99.99
2017-09-21T00:05:16.927Z,99.99
2017-09-21T00:06:16.924Z,99.99
2017-09-21T00:07:16.923Z,99.99
2017-09-21T00:08:16.918Z,99.99
2017-09-21T00:09:16.913Z,99.99
2017-09-21T00:10:16.909Z,99.99
2017-09-21T00:11:16.902Z,99.99
2017-09-21T00:12:16.898Z,99.99
2017-09-21T00:13:16.894Z,99.99
2017-09-21T00:14:16.890Z,99.99
2017-09-21T00:15:16.880Z,99.99
2017-09-21T00:16:16.874Z,99.99
2017-09-21T00:17:16.871Z,99.99
2017-09-21T00:18:16.866Z,99.99
2017-09-21T00:19:16.859Z,99.99
2017-09-21T00:20:16.855Z,99.99
2017-09-21T00:21:16.850Z,99.99
2017-09-21T00:22:16.846Z,99.99
2017-09-21T00:23:16.844Z,99.99
2017-09-21T00:24:16.841Z,99.99
2017-09-21T00:25:16.836Z,99.99
2017-09-21T00:26:16.831Z,99.99
2017-09-21T00:27:16.825Z,99.99
2017-09-21T00:28:16.822Z,99.99
2017-09-21T00:29:16.817Z,99.99
2017-09-21T00:30:16.812Z,99.99
2017-09-21T00:31:16.802Z,99.99
2017-09-21T00:32:16.796Z,99.99
2017-09-21T00:33:16.793Z,99.99
2017-09-21T00:34:16.788Z,99.99
2017-09-21T00:35:16.783Z,99.99
2017-09-21T00:36:16.778Z,99.99
2017-09-21T00:37:16.771Z,99.99
2017-09-21T00:38:16.767Z,99.99
2017-09-21T00:39:16.789Z,99.99
2017-09-21T00:40:16.760Z,99.99
2017-09-21T00:41:16.756Z,99.99
2017-09-21T00:42:16.752Z,99.99
2017-09-21T00:43:16.746Z,99.99
2017-09-21T00:44:16.741Z,99.99
2017-09-21T00:45:16.737Z,99.99
2017-09-21T00:46:16.756Z,99.99
2017-09-21T00:47:16.724Z,99.99
2017-09-21T00:48:16.717Z,99.99
2017-09-21T00:49:16.715Z,99.99
2017-09-21T00:50:16.706Z,99.99
2017-09-21T00:51:16.706Z,99.99
2017-09-21T00:52:16.701Z,99.99
2017-09-21T00:53:16.695Z,99.99
2017-09-21T00:54:16.692Z,99.99
2017-09-21T00:55:16.681Z,99.99
2017-09-21T00:56:16.680Z,99.99
2017-09-21T00:57:16.673Z,99.99
2017-09-21T00:58:16.669Z,99.99
2017-09-21T00:59:16.661Z,99.99
2017-09-21T01:00:16.656Z,99.99
2017-09-21T01:01:16.653Z,99.99
2017-09-21T01:02:16.648Z,99.99
2017-09-21T01:03:16.645Z,99.99
2017-09-21T01:04:16.641Z,99.99
2017-09-21T01:05:16.637Z,99.99
2017-09-21T01:06:16.632Z,99.99
2017-09-21T01:07:16.625Z,99.99
2017-09-21T01:08:16.622Z,99.99
2017-09-21T01:09:16.616Z,99.99
2017-09-21T01:10:16.612Z,99.99
2017-09-21T01:11:16.604Z,99.99
2017-09-21T01:12:16.596Z,99.99
2017-09-21T01:13:16.592Z,99.99
2017-09-21T01:14:16.586Z,99.99
2017-09-21T01:15:16.582Z,99.99
2017-09-21T01:16:16.578Z,99.99
2017-09-21T01:17:16.570Z,99.99
2017-09-21T01:18:16.567Z,99.99
2017-09-21T01:19:16.566Z,99.99
2017-09-21T01:20:16.559Z,99.99
2017-09-21T01:21:16.556Z,99.99
2017-09-21T01:22:16.550Z,99.99
2017-09-21T01:23:16.543Z,99.99
2017-09-21T01:24:16.541Z,99.99
2017-09-21T01:25:16.534Z,99.99
2017-09-21T01:26:16.531Z,99.99
2017-09-21T01:27:16.520Z,99.99
2017-09-21T01:28:16.517Z,99.99
2017-09-21T01:29:16.512Z,99.99
2017-09-21T01:30:16.506Z,99.99
2017-09-21T01:31:16.505Z,99.99
2017-09-21T01:32:16.496Z,99.99
2017-09-21T01:33:16.490Z,99.99
2017-09-21T01:34:16.486Z,99.99
2017-09-21T01:35:16.484Z,99.99
2017-09-21T01:36:16.479Z,99.99
2017-09-21T01:37:16.474Z,99.99
2017-09-21T01:38:16.468Z,99.99
2017-09-21T01:39:16.465Z,99.99
2017-09-21T01:40:16.462Z,99.99
2017-09-21T01:41:16.456Z,99.99
2017-09-21T01:42:16.450Z,99.99
2017-09-21T01:43:16.439Z,99.99
2017-09-21T01:44:16.434Z,99.99
2017-09-21T01:45:16.430Z,99.99
2017-09-21T01:46:16.424Z,99.99
2017-09-21T01:47:16.420Z,99.99
2017-09-21T01:48:16.415Z,99.99
2017-09-21T01:49:16.409Z,99.99
2017-09-21T01:50:16.403Z,99.99
2017-09-21T01:51:16.402Z,99.99
2017-09-21T01:52:16.401Z,99.99
2017-09-21T01:53:16.392Z,99.99
2017-09-21T01:54:16.387Z,99.99
2017-09-21T01:55:16.378Z,99.99
2017-09-21T01:56:16.372Z,99.99
2017-09-21T01:57:16.369Z,99.99
2017-09-21T01:58:16.363Z,99.99
2017-09-21T01:59:16.362Z,99.99
2017-09-21T02:00:16.381Z,99.99
2017-09-21T02:01:16.351Z,99.99
2017-09-21T02:02:16.348Z,99.99
2017-09-21T02:03:16.341Z,99.99
2017-09-21T02:04:16.336Z,99.99
2017-09-21T02:05:16.331Z,99.99
2017-09-21T02:06:16.326Z,99.99
2017-09-21T02:07:16.315Z,99.99
2017-09-21T02:08:16.312Z,99.99
2017-09-21T02:09:16.307Z,99.99
2017-09-21T02:10:16.302Z,99.99
2017-09-21T02:11:16.296Z,99.99
2017-09-21T02:12:16.291Z,99.99
2017-09-21T02:13:16.286Z,99.99
2017-09-21T02:14:16.282Z,99.99
2017-09-21T02:15:16.280Z,99.99
2017-09-21T02:16:16.274Z,99.99
2017-09-21T02:17:16.270Z,99.99
2017-09-21T02:18:16.266Z,99.99
2017-09-21T02:19:16.259Z,99.99
2017-09-21T02:20:16.256Z,99.99
2017-09-21T02:21:16.250Z,99.99
2017-09-21T02:22:16.246Z,99.99
2017-09-21T02:23:16.235Z,99.99
2017-09-21T02:24:16.231Z,99.99
2017-09-21T02:25:16.227Z,99.99
2017-09-21T02:26:16.220Z,99.99
2017-09-21T02:27:16.215Z,99.99
2017-09-21T02:28:16.212Z,99.99
2017-09-21T02:29:16.204Z,99.99
2017-09-21T02:30:16.201Z,99.99
2017-09-21T02:31:16.200Z,99.99
2017-09-21T02:32:16.195Z,99.99
2017-09-21T02:33:16.189Z,99.99
2017-09-21T02:34:16.185Z,99.99
2017-09-21T02:35:16.179Z,99.99
2017-09-21T02:36:16.175Z,99.99
2017-09-21T02:37:16.169Z,99.99
2017-09-21T02:38:16.164Z,99.99
2017-09-21T02:39:16.154Z,99.99
2017-09-21T02:40:16.149Z,99.99
2017-09-21T02:41:16.148Z,99.99
2017-09-21T02:42:16.143Z,99.99
2017-09-21T02:43:16.135Z,99.99
2017-09-21T02:44:16.130Z,99.99
2017-09-21T02:45:16.125Z,99.99
2017-09-21T02:46:16.120Z,99.99
2017-09-21T02:47:16.117Z,99.99
2017-09-21T02:48:16.115Z,99.99
2017-09-21T02:49:16.107Z,99.99
2017-09-21T02:50:16.103Z,99.99
2017-09-21T02:51:16.097Z,99.99
2017-09-21T02:52:16.099Z,99.99
2017-09-21T02:53:16.087Z,99.99
2017-09-21T02:54:16.082Z,99.99
2017-09-21T02:55:16.073Z,99.99
2017-09-21T02:56:16.066Z,99.99
2017-09-21T02:57:16.061Z,99.99
2017-09-21T02:58:16.057Z,99.99
2017-09-21T02:59:16.055Z,99.99
2017-09-21T03:00:16.050Z,99.99
2017-09-21T03:01:16.045Z,99.99
2017-09-21T03:02:16.039Z,99.99
2017-09-21T03:03:16.033Z,99.99
2017-09-21T03:04:16.029Z,99.99
2017-09-21T03:05:16.019Z,99.99
2017-09-21T03:06:16.014Z,99.99
2017-09-21T03:07:16.007Z,99.99
2017-09-21T03:08:16.002Z,99.99
2017-09-21T03:09:16.000Z,99.99
2017-09-21T03:10:15.993Z,99.99
2017-09-21T03:11:15.992Z,99.99
2017-09-21T03:12:15.986Z,99.99
2017-09-21T03:13:15.982Z,99.99
2017-09-21T03:14:15.976Z,99.99
2017-09-21T03:15:15.973Z,99.99
2017-09-21T03:16:15.965Z,99.99
2017-09-21T03:17:15.961Z,99.99
2017-09-21T03:18:15.956Z,99.99
2017-09-21T03:19:15.946Z,99.99
2017-09-21T03:20:15.940Z,99.99
2017-09-21T03:21:15.937Z,99.99
2017-09-21T03:22:15.929Z,99.99
2017-09-21T03:23:15.924Z,99.99
2017-09-21T03:24:15.918Z,99.99
2017-09-21T03:25:15.913Z,99.99
2017-09-21T03:26:15.912Z,99.99
2017-09-21T03:27:15.906Z,99.99
2017-09-21T03:28:15.901Z,99.99
2017-09-21T03:29:15.895Z,99.99
2017-09-21T03:30:15.893Z,99.99
2017-09-21T03:31:15.887Z,99.99
2017-09-21T03:32:15.878Z,99.99
2017-09-21T03:33:15.874Z,99.99
2017-09-21T03:34:15.874Z,99.99
2017-09-21T03:35:15.858Z,99.99
2017-09-21T03:36:15.854Z,99.99
2017-09-21T03:37:15.849Z,99.99
2017-09-21T03:38:15.842Z,99.99
2017-09-21T03:39:15.838Z,99.99
2017-09-21T03:40:15.832Z,99.99
2017-09-21T03:41:15.826Z,99.99
2017-09-21T03:42:15.822Z,99.99
2017-09-21T03:43:15.819Z,99.99
2017-09-21T03:44:15.843Z,99.99
2017-09-21T03:45:15.859Z,99.99
2017-09-21T03:46:15.861Z,99.99
2017-09-21T03:47:15.828Z,99.99
2017-09-21T03:48:15.792Z,99.99
2017-09-21T03:49:15.789Z,99.99
2017-09-21T03:50:15.783Z,99.99
2017-09-21T03:51:15.773Z,99.99
2017-09-21T03:52:15.769Z,99.99
2017-09-21T03:53:15.762Z,99.99
2017-09-21T03:54:15.763Z,99.99
2017-09-21T03:55:15.752Z,99.99
2017-09-21T03:56:15.747Z,99.99
2017-09-21T03:57:15.742Z,99.99
2017-09-21T03:58:15.736Z,99.99
2017-09-21T03:59:15.734Z,99.99
2017-09-21T04:00:15.730Z,99.99
2017-09-21T04:01:15.724Z,99.99
2017-09-21T04:02:15.720Z,99.99
2017-09-21T04:03:15.709Z,99.99
2017-09-21T04:04:15.706Z,99.99
2017-09-21T04:05:15.699Z,99.99
2017-09-21T04:06:15.694Z,99.99
2017-09-21T04:07:15.693Z,99.99
2017-09-21T04:08:15.687Z,99.99
2017-09-21T04:09:15.682Z,99.99
2017-09-21T04:10:15.678Z,99.99
2017-09-21T04:11:15.672Z,99.99
2017-09-21T04:12:15.666Z,99.99
2017-09-21T04:13:15.661Z,99.99
2017-09-21T04:14:15.657Z,99.99
2017-09-21T04:15:15.645Z,99.99
2017-09-21T04:16:15.642Z,99.99
2017-09-21T04:17:15.637Z,99.99
2017-09-21T04:18:15.630Z,99.99
2017-09-21T04:19:15.626Z,99.99
2017-09-21T04:20:15.621Z,99.99
2017-09-21T04:21:15.616Z,99.99
2017-09-21T04:22:15.611Z,99.99
2017-09-21T04:23:15.608Z,99.99
2017-09-21T04:24:15.605Z,99.99
2017-09-21T04:25:15.599Z,99.99
2017-09-21T04:26:15.594Z,99.99
2017-09-21T04:27:15.587Z,99.99
2017-09-21T04:28:15.581Z,99.99
2017-09-21T04:29:15.578Z,99.99
2017-09-21T04:30:15.573Z,99.99
2017-09-21T04:31:15.561Z,99.99
2017-09-21T04:32:15.558Z,99.99
2017-09-21T04:33:15.552Z,99.99
2017-09-21T04:34:15.547Z,99.99
2017-09-21T04:35:15.542Z,99.99
2017-09-21T04:36:15.535Z,99.99
2017-09-21T04:37:15.531Z,99.99
2017-09-21T04:38:15.526Z,99.99
2017-09-21T04:39:15.525Z,99.99
2017-09-21T04:40:15.518Z,99.99
2017-09-21T04:41:15.513Z,99.99
2017-09-21T04:42:15.508Z,99.99
2017-09-21T04:43:15.503Z,99.99
2017-09-21T04:44:15.497Z,99.99
2017-09-21T04:45:15.493Z,99.99
2017-09-21T04:46:15.488Z,99.99
2017-09-21T04:47:15.502Z,99.99
2017-09-21T04:48:15.473Z,99.99
2017-09-21T04:49:15.467Z,99.99
2017-09-21T04:50:15.463Z,99.99
2017-09-21T04:51:15.455Z,99.99
2017-09-21T04:52:15.451Z,99.99
2017-09-21T04:53:15.450Z,99.99
2017-09-21T04:54:15.442Z,99.99
2017-09-21T04:55:15.439Z,99.99
2017-09-21T04:56:15.435Z,99.99
2017-09-21T04:57:15.430Z,99.99
2017-09-21T04:58:15.425Z,99.99
2017-09-21T04:59:15.419Z,99.99
2017-09-21T05:00:15.414Z,99.99
2017-09-21T05:01:15.409Z,99.99
2017-09-21T05:02:15.404Z,99.99
2017-09-21T05:03:15.393Z,99.99
2017-09-21T05:04:15.389Z,99.99
2017-09-21T05:05:15.383Z,99.99
2017-09-21T05:06:15.385Z,99.99
2017-09-21T05:07:15.376Z,99.99
2017-09-21T05:08:15.370Z,99.99
2017-09-21T05:09:15.366Z,99.99
2017-09-21T05:10:15.361Z,99.99
2017-09-21T05:11:15.352Z,99.99
2017-09-21T05:12:15.345Z,99.99
2017-09-21T05:13:15.373Z,99.99
2017-09-21T05:14:15.335Z,99.99
2017-09-21T05:15:15.329Z,99.99
2017-09-21T05:16:15.324Z,99.99
2017-09-21T05:17:15.318Z,99.99
2017-09-21T05:18:15.314Z,99.99
2017-09-21T05:19:15.312Z,99.99
2017-09-21T05:20:15.306Z,99.99
2017-09-21T05:21:15.302Z,99.99
2017-09-21T05:22:15.298Z,99.99
2017-09-21T05:23:15.292Z,99.99
2017-09-21T05:24:15.286Z,99.99
2017-09-21T05:25:15.281Z,99.99
2017-09-21T05:26:15.275Z,99.99
2017-09-21T05:27:15.266Z,99.99
2017-09-21T05:28:15.261Z,99.99
2017-09-21T05:29:15.254Z,99.99
2017-09-21T05:30:15.258Z,99.99
2017-09-21T05:31:15.243Z,99.99
2017-09-21T05:32:15.240Z,99.99
2017-09-21T05:33:15.234Z,99.99
2017-09-21T05:34:15.230Z,99.99
2017-09-21T05:35:15.227Z,99.99
2017-09-21T05:36:15.221Z,99.99
2017-09-21T05:37:15.218Z,99.99
2017-09-21T05:38:15.214Z,99.99
2017-09-21T05:39:15.207Z,99.99
2017-09-21T05:40:15.202Z,99.99
2017-09-21T05:41:15.196Z,99.99
2017-09-21T05:42:15.192Z,99.99
2017-09-21T05:43:15.183Z,99.99
2017-09-21T05:44:15.178Z,99.99
2017-09-21T05:45:15.176Z,99.99
2017-09-21T05:46:15.167Z,99.99
2017-09-21T05:47:15.163Z,99.99
2017-09-21T05:48:15.158Z,99.99
2017-09-21T05:49:15.152Z,99.23
2017-09-21T05:50:15.148Z,98.32
2017-09-21T05:51:15.151Z,96.70
2017-09-21T05:52:15.141Z,95.84
2017-09-21T05:53:15.137Z,95.51
2017-09-21T05:54:15.136Z,93.79
2017-09-21T05:55:15.128Z,93.74
2017-09-21T05:56:15.124Z,92.40
2017-09-21T05:57:15.119Z,91.68
2017-09-21T05:58:15.116Z,90.73
2017-09-21T05:59:15.106Z,89.72
2017-09-21T06:00:15.103Z,88.43
2017-09-21T06:01:15.100Z,87.61
2017-09-21T06:02:15.098Z,85.98
2017-09-21T06:03:15.093Z,84.39
2017-09-21T06:04:15.091Z,83.34
2017-09-21T06:05:15.087Z,82.23
2017-09-21T06:06:15.085Z,81.56
2017-09-21T06:07:15.086Z,80.16
2017-09-21T06:08:15.086Z,79.49
2017-09-21T06:09:15.082Z,78.49
2017-09-21T06:10:15.079Z,77.63
2017-09-21T06:11:15.076Z,77.71
2017-09-21T06:12:15.075Z,77.29
2017-09-21T06:13:15.073Z,76.32
2017-09-21T06:14:15.073Z,76.84
2017-09-21T06:15:15.066Z,75.21
2017-09-21T06:16:15.065Z,74.73
2017-09-21T06:17:15.065Z,74.68
2017-09-21T06:18:15.062Z,74.19
2017-09-21T06:19:15.062Z,73.91
2017-09-21T06:20:15.062Z,73.39
2017-09-21T06:21:15.071Z,73.75
2017-09-21T06:22:15.062Z,72.34
2017-09-21T06:23:15.065Z,71.10
2017-09-21T06:24:15.064Z,70.45
2017-09-21T06:25:15.066Z,71.09
2017-09-21T06:26:15.066Z,71.28
2017-09-21T06:27:15.067Z,71.80
2017-09-21T06:28:15.066Z,71.51
2017-09-21T06:29:15.066Z,71.37
2017-09-21T06:30:15.068Z,71.35
2017-09-21T06:31:15.064Z,71.12
2017-09-21T06:32:15.066Z,70.55
2017-09-21T06:33:15.066Z,70.84
2017-09-21T06:34:15.068Z,71.19
2017-09-21T06:35:15.070Z,71.61
2017-09-21T06:36:15.072Z,71.28
2017-09-21T06:37:15.074Z,71.35
2017-09-21T06:38:15.093Z,70.62
2017-09-21T06:39:15.080Z,69.91
2017-09-21T06:40:15.088Z,69.72
2017-09-21T06:41:15.086Z,70.10
2017-09-21T06:42:15.088Z,69.21
2017-09-21T06:43:15.091Z,68.06
2017-09-21T06:44:15.093Z,67.61
2017-09-21T06:45:15.096Z,67.22
2017-09-21T06:46:15.098Z,66.36
2017-09-21T06:47:15.096Z,65.84
2017-09-21T06:48:15.100Z,65.59
2017-09-21T06:49:15.102Z,65.91
2017-09-21T06:50:15.107Z,66.64
2017-09-21T06:51:15.110Z,67.16
2017-09-21T06:52:15.114Z,67.03
2017-09-21T06:53:15.117Z,67.61
2017-09-21T06:54:15.120Z,68.18
2017-09-21T06:55:15.129Z,68.06
2017-09-21T06:56:15.133Z,66.91
2017-09-21T06:57:15.135Z,67.38
2017-09-21T06:58:15.142Z,66.52
2017-09-21T06:59:15.144Z,66.61
2017-09-21T07:00:15.151Z,66.97
2017-09-21T07:01:15.154Z,67.29
2017-09-21T07:02:15.158Z,67.03
2017-09-21T07:03:15.157Z,66.07
2017-09-21T07:04:15.163Z,65.37
2017-09-21T07:05:15.168Z,65.27
2017-09-21T07:06:15.173Z,65.14
2017-09-21T07:07:15.177Z,65.91
2017-09-21T07:08:15.182Z,66.36
2017-09-21T07:09:15.187Z,65.14
2017-09-21T07:10:15.193Z,64.31
2017-09-21T07:11:15.203Z,62.67
2017-09-21T07:12:15.206Z,62.99
2017-09-21T07:13:15.212Z,63.38
2017-09-21T07:14:15.218Z,64.40
2017-09-21T07:15:15.219Z,65.23
2017-09-21T07:16:15.226Z,66.84
2017-09-21T07:17:15.230Z,67.70
2017-09-21T07:18:15.236Z,67.96
2017-09-21T07:19:15.246Z,68.57
2017-09-21T07:20:15.253Z,69.20
2017-09-21T07:21:15.256Z,70.09
2017-09-21T07:22:15.262Z,71.69
2017-09-21T07:23:15.268Z,72.42
2017-09-21T07:24:15.273Z,73.76
2017-09-21T07:25:15.277Z,73.61
2017-09-21T07:26:15.283Z,74.27
2017-09-21T07:27:15.283Z,74.79
2017-09-21T07:28:15.286Z,74.76
2017-09-21T07:29:15.292Z,74.18
2017-09-21T07:30:15.295Z,75.29
2017-09-21T07:31:15.299Z,75.68
2017-09-21T07:32:15.304Z,76.64
2017-09-21T07:33:15.308Z,77.11
2017-09-21T07:34:15.312Z,77.26
2017-09-21T07:35:15.320Z,78.13
2017-09-21T07:36:15.325Z,77.59
2017-09-21T07:37:15.325Z,77.06
2017-09-21T07:38:15.330Z,76.62
2017-09-21T07:39:15.333Z,75.37
2017-09-21T07:40:15.336Z,74.69
2017-09-21T07:41:15.341Z,74.60
2017-09-21T07:42:15.371Z,75.27
2017-09-21T07:43:15.340Z,74.27
2017-09-21T07:44:15.345Z,74.69
2017-09-21T07:45:15.347Z,74.44
2017-09-21T07:46:15.352Z,73.91
2017-09-21T07:47:15.353Z,73.72
2017-09-21T07:48:15.358Z,73.10
2017-09-21T07:49:15.360Z,72.81
2017-09-21T07:50:15.362Z,73.39
2017-09-21T07:51:15.369Z,73.10
2017-09-21T07:52:15.373Z,73.04
2017-09-21T07:53:15.377Z,71.31
2017-09-21T07:54:15.380Z,71.28
2017-09-21T07:55:15.382Z,71.58
2017-09-21T07:56:15.385Z,71.31
2017-09-21T07:57:15.388Z,71.64
2017-09-21T07:58:15.393Z,71.08
2017-09-21T07:59:15.391Z,67.99
2017-09-21T08:00:15.396Z,67.42
2017-09-21T08:01:15.399Z,67.26
2017-09-21T08:02:15.407Z,66.24
2017-09-21T08:03:15.406Z,65.11
2017-09-21T08:04:15.421Z,63.50
2017-09-21T08:05:15.414Z,62.77
2017-09-21T08:06:15.426Z,62.51
2017-09-21T08:07:15.430Z,62.41
2017-09-21T08:08:15.434Z,62.48
2017-09-21T08:09:15.440Z,62.80
2017-09-21T08:10:15.446Z,61.22
2017-09-21T08:11:15.452Z,60.10
2017-09-21T08:12:15.458Z,59.48
2017-09-21T08:13:15.465Z,59.75
2017-09-21T08:14:15.471Z,59.84
2017-09-21T08:15:15.473Z,59.84
2017-09-21T08:16:15.479Z,59.97
2017-09-21T08:17:15.488Z,59.58
2017-09-21T08:18:15.495Z,59.45
2017-09-21T08:19:15.507Z,59.39
2017-09-21T08:20:15.514Z,58.51
2017-09-21T08:21:15.520Z,57.71
2017-09-21T08:22:15.529Z,57.19
2017-09-21T08:23:15.533Z,56.03
2017-09-21T08:24:15.542Z,55.55
2017-09-21T08:25:15.556Z,55.46
2017-09-21T08:26:15.559Z,55.78
2017-09-21T08:27:15.567Z,55.07
2017-09-21T08:28:15.575Z,54.27
2017-09-21T08:29:15.587Z,52.56
2017-09-21T08:30:15.594Z,52.22
2017-09-21T08:31:15.606Z,51.23
2017-09-21T08:32:15.617Z,50.48
2017-09-21T08:33:15.626Z,50.21
2017-09-21T08:34:15.635Z,50.67
2017-09-21T08:35:15.645Z,50.04
2017-09-21T08:36:15.656Z,50.65
2017-09-21T08:37:15.667Z,48.78
2017-09-21T08:38:15.678Z,48.20
2017-09-21T08:39:15.684Z,48.06
2017-09-21T08:40:15.694Z,47.96
2017-09-21T08:41:15.705Z,47.01
2017-09-21T08:42:15.716Z,45.21
2017-09-21T08:43:15.726Z,43.63
2017-09-21T08:44:15.738Z,43.76
2017-09-21T08:45:15.749Z,43.91
2017-09-21T08:46:15.763Z,44.02
2017-09-21T08:47:15.777Z,43.22
2017-09-21T08:48:15.788Z,43.26
2017-09-21T08:49:15.801Z,43.50
2017-09-21T08:50:15.813Z,44.12
2017-09-21T08:51:15.824Z,43.46
2017-09-21T08:52:15.836Z,42.70
2017-09-21T08:53:15.850Z,41.60
2017-09-21T08:54:15.862Z,40.52
2017-09-21T08:55:15.870Z,40.08
2017-09-21T08:56:15.882Z,41.36
2017-09-21T08:57:15.901Z,41.30
2017-09-21T08:58:15.910Z,41.48
2017-09-21T08:59:15.922Z,40.72
2017-09-21T09:00:15.934Z,40.06
2017-09-21T09:01:15.948Z,38.82
2017-09-21T09:02:15.961Z,38.84
2017-09-21T09:03:15.977Z,38.17
2017-09-21T09:04:15.991Z,38.06
2017-09-21T09:05:16.005Z,37.37
2017-09-21T09:06:16.020Z,37.45
2017-09-21T09:07:16.032Z,36.71
2017-09-21T09:08:16.045Z,35.24
2017-09-21T09:09:16.061Z,34.11
2017-09-21T09:10:16.072Z,32.99
2017-09-21T09:11:16.083Z,33.28
2017-09-21T09:12:16.098Z,32.71
2017-09-21T09:13:16.112Z,33.40
2017-09-21T09:14:16.127Z,34.14
2017-09-21T09:15:16.141Z,36.04
2017-09-21T09:16:16.154Z,35.67
2017-09-21T09:17:16.170Z,36.72
2017-09-21T09:18:16.185Z,35.75
2017-09-21T09:19:16.203Z,35.25
2017-09-21T09:20:16.219Z,36.51
2017-09-21T09:21:16.232Z,37.60
2017-09-21T09:22:16.249Z,38.28
2017-09-21T09:23:16.265Z,38.44
2017-09-21T09:24:16.272Z,39.92
2017-09-21T09:25:16.288Z,40.58
2017-09-21T09:26:16.304Z,41.42
2017-09-21T09:27:16.322Z,41.05
2017-09-21T09:28:16.335Z,40.97
2017-09-21T09:29:16.352Z,40.44
2017-09-21T09:30:16.364Z,40.44
2017-09-21T09:31:16.377Z,40.89
2017-09-21T09:32:16.392Z,39.80
2017-09-21T09:33:16.408Z,39.29
2017-09-21T09:34:16.423Z,38.56
2017-09-21T09:35:16.432Z,38.49
2017-09-21T09:36:16.450Z,37.97
2017-09-21T09:37:16.461Z,38.17
2017-09-21T09:38:16.476Z,39.70
2017-09-21T09:39:16.489Z,41.59
2017-09-21T09:40:16.506Z,40.15
2017-09-21T09:41:16.519Z,39.82
2017-09-21T09:42:16.535Z,39.03
2017-09-21T09:43:16.552Z,38.67
2017-09-21T09:44:16.566Z,38.38
2017-09-21T09:45:16.580Z,37.70
2017-09-21T09:46:16.596Z,37.87
2017-09-21T09:47:16.609Z,37.21
2017-09-21T09:48:16.623Z,37.19
2017-09-21T09:49:16.639Z,37.82
2017-09-21T09:50:16.653Z,38.40
2017-09-21T09:51:16.663Z,38.83
2017-09-21T09:52:16.678Z,38.71
2017-09-21T09:53:16.693Z,36.80
2017-09-21T09:54:16.708Z,37.04
2017-09-21T09:55:16.731Z,37.74
2017-09-21T09:56:16.737Z,38.13
2017-09-21T09:57:16.750Z,37.13
2017-09-21T09:58:16.766Z,35.99
2017-09-21T09:59:16.789Z,35.81
2017-09-21T10:00:16.805Z,35.83
2017-09-21T10:01:16.814Z,35.61
2017-09-21T10:02:16.827Z,34.78
2017-09-21T10:03:16.842Z,34.64
2017-09-21T10:04:16.861Z,34.66
2017-09-21T10:05:16.877Z,35.60
2017-09-21T10:06:16.884Z,36.59
2017-09-21T10:07:16.897Z,36.30
2017-09-21T10:08:16.909Z,35.71
2017-09-21T10:09:16.926Z,36.12
2017-09-21T10:10:16.941Z,36.57
2017-09-21T10:11:16.954Z,37.19
2017-09-21T10:12:16.969Z,36.18
2017-09-21T10:13:16.985Z,35.75
2017-09-21T10:14:16.999Z,36.25
2017-09-21T10:15:17.016Z,35.80
2017-09-21T10:16:17.030Z,35.25
2017-09-21T10:17:17.047Z,35.65
2017-09-21T10:18:17.061Z,34.84
2017-09-21T10:19:17.076Z,36.40
2017-09-21T10:20:17.089Z,37.71
2017-09-21T10:21:17.133Z,38.75
2017-09-21T10:22:17.118Z,38.39
2017-09-21T10:23:17.128Z,38.48
2017-09-21T10:24:17.142Z,38.54
2017-09-21T10:25:17.156Z,38.15
2017-09-21T10:26:17.169Z,38.23
2017-09-21T10:27:17.188Z,38.15
2017-09-21T10:28:17.203Z,38.62
2017-09-21T10:29:17.217Z,38.26
2017-09-21T10:30:17.230Z,37.32
2017-09-21T10:31:17.240Z,37.30
2017-09-21T10:32:17.254Z,37.82
2017-09-21T10:33:17.267Z,37.93
2017-09-21T10:34:17.282Z,37.16
2017-09-21T10:35:17.295Z,36.80
2017-09-21T10:36:17.308Z,36.30
2017-09-21T10:37:17.323Z,36.18
2017-09-21T10:38:17.337Z,36.47
2017-09-21T10:39:17.355Z,37.08
2017-09-21T10:40:17.370Z,36.87
2017-09-21T10:41:17.383Z,36.93
2017-09-21T10:42:17.397Z,37.18
2017-09-21T10:43:17.408Z,37.01
2017-09-21T10:44:17.423Z,37.85
2017-09-21T10:45:17.437Z,37.02
2017-09-21T10:46:17.450Z,35.49
2017-09-21T10:47:17.459Z,35.03
2017-09-21T10:48:17.474Z,35.71
2017-09-21T10:49:17.486Z,36.44
2017-09-21T10:50:17.501Z,37.02
2017-09-21T10:51:17.515Z,38.71
2017-09-21T10:52:17.527Z,38.39
2017-09-21T10:53:17.541Z,38.71
2017-09-21T10:54:17.554Z,37.51
2017-09-21T10:55:17.578Z,38.70
2017-09-21T10:56:17.584Z,37.60
2017-09-21T10:57:17.597Z,38.07
2017-09-21T10:58:17.610Z,38.15
2017-09-21T10:59:17.623Z,38.67
2017-09-21T11:00:17.636Z,38.48
2017-09-21T11:01:17.648Z,38.39
2017-09-21T11:02:17.662Z,37.99
2017-09-21T11:03:17.669Z,38.01
2017-09-21T11:04:17.680Z,37.24
2017-09-21T11:05:17.695Z,37.95
2017-09-21T11:06:17.707Z,37.41
2017-09-21T11:07:17.720Z,36.35
2017-09-21T11:08:17.733Z,35.44
2017-09-21T11:09:17.749Z,35.77
2017-09-21T11:10:17.759Z,34.50
2017-09-21T11:11:17.774Z,33.78
2017-09-21T11:12:17.787Z,33.73
2017-09-21T11:13:17.802Z,35.45
2017-09-21T11:14:17.810Z,36.21
2017-09-21T11:15:17.823Z,36.97
2017-09-21T11:16:17.836Z,37.86
2017-09-21T11:17:17.848Z,38.75
2017-09-21T11:18:17.881Z,38.23
2017-09-21T11:19:17.866Z,38.48
2017-09-21T11:20:17.879Z,39.26
2017-09-21T11:21:17.891Z,39.67
2017-09-21T11:22:17.903Z,39.53
2017-09-21T11:23:17.914Z,40.99
2017-09-21T11:24:17.924Z,41.83
2017-09-21T11:25:17.935Z,42.32
2017-09-21T11:26:17.945Z,42.59
2017-09-21T11:27:17.957Z,42.76
2017-09-21T11:28:17.970Z,42.74
2017-09-21T11:29:17.979Z,43.04
2017-09-21T11:30:17.989Z,43.72
2017-09-21T11:31:17.995Z,44.37
2017-09-21T11:32:18.000Z,45.34
2017-09-21T11:33:18.009Z,46.71
2017-09-21T11:34:18.016Z,46.81
2017-09-21T11:35:18.028Z,47.19
2017-09-21T11:36:18.037Z,46.71
2017-09-21T11:37:18.049Z,46.78
2017-09-21T11:38:18.051Z,47.77
2017-09-21T11:39:18.058Z,48.06
2017-09-21T11:40:18.065Z,48.06
2017-09-21T11:41:18.071Z,46.59
2017-09-21T11:42:18.079Z,46.66
2017-09-21T11:43:18.081Z,47.07
2017-09-21T11:44:18.087Z,47.96
2017-09-21T11:45:18.093Z,48.06
2017-09-21T11:46:18.099Z,47.07
2017-09-21T11:47:18.108Z,47.29
2017-09-21T11:48:18.111Z,48.06
2017-09-21T11:49:18.114Z,47.96
2017-09-21T11:50:18.121Z,48.06
2017-09-21T11:51:18.129Z,47.77
2017-09-21T11:52:18.136Z,47.65
2017-09-21T11:53:18.141Z,47.53
2017-09-21T11:54:18.168Z,47.77
2017-09-21T11:55:18.150Z,47.96
2017-09-21T11:56:18.156Z,48.54
2017-09-21T11:57:18.161Z,47.87
2017-09-21T11:58:18.166Z,47.70
2017-09-21T11:59:18.167Z,48.18
2017-09-21T12:00:18.169Z,47.89
2017-09-21T12:01:18.175Z,47.50
2017-09-21T12:02:18.181Z,47.99
2017-09-21T12:03:18.183Z,46.83
2017-09-21T12:04:18.188Z,48.30
2017-09-21T12:05:18.194Z,47.70
2017-09-21T12:06:18.199Z,46.73
2017-09-21T12:07:18.205Z,46.37
2017-09-21T12:08:18.209Z,46.15
2017-09-21T12:09:18.215Z,45.48
2017-09-21T12:10:18.219Z,45.26
2017-09-21T12:11:18.222Z,46.23
2017-09-21T12:12:18.228Z,46.40
2017-09-21T12:13:18.231Z,47.14
2017-09-21T12:14:18.236Z,47.72
2017-09-21T12:15:18.236Z,47.75
2017-09-21T12:16:18.239Z,48.90
2017-09-21T12:17:18.245Z,50.09
2017-09-21T12:18:18.248Z,48.35
2017-09-21T12:19:18.253Z,47.27
2017-09-21T12:20:18.259Z,46.88
2017-09-21T12:21:18.259Z,46.86
2017-09-21T12:22:18.264Z,47.14
2017-09-21T12:23:18.271Z,47.05
2017-09-21T12:24:18.275Z,47.03
2017-09-21T12:25:18.279Z,46.86
2017-09-21T12:26:18.283Z,47.44
2017-09-21T12:27:18.286Z,47.72
2017-09-21T12:28:18.288Z,47.82
2017-09-21T12:29:18.293Z,48.01
2017-09-21T12:30:18.296Z,48.11
2017-09-21T12:31:18.295Z,49.17
2017-09-21T12:32:18.303Z,49.46
2017-09-21T12:33:18.301Z,48.61
2017-09-21T12:34:18.306Z,49.10
2017-09-21T12:35:18.312Z,48.90
2017-09-21T12:36:18.317Z,48.49
2017-09-21T12:37:18.321Z,48.40
2017-09-21T12:38:18.358Z,47.94
2017-09-21T12:39:18.324Z,48.40
2017-09-21T12:40:18.326Z,48.11
2017-09-21T12:41:18.329Z,48.49
2017-09-21T12:42:18.332Z,47.80
2017-09-21T12:43:18.335Z,48.38
2017-09-21T12:44:18.339Z,48.86
2017-09-21T12:45:18.342Z,49.75
2017-09-21T12:46:18.345Z,49.07
2017-09-21T12:47:18.352Z,48.76
2017-09-21T12:48:18.355Z,49.55
2017-09-21T12:49:18.359Z,50.32
2017-09-21T12:50:18.361Z,50.23
2017-09-21T12:51:18.370Z,51.07
2017-09-21T12:52:18.367Z,50.59